createdAt,value
2018-11-26T00:00:47.386Z,94454.88
2018-11-26T00:03:22.149Z,94442.05
2018-11-26T00:05:56.814Z,94447.06
2018-11-26T00:08:34.885Z,94445.33
2018-11-26T00:11:43.913Z,94444.66
2018-11-26T00:14:18.378Z,94444.00
2018-11-26T00:16:52.912Z,94441.59
2018-11-26T00:19:27.300Z,94441.91
2018-11-26T00:22:02.014Z,94436.84
2018-11-26T00:24:36.488Z,94438.03
2018-11-26T00:27:11.682Z,94434.00
2018-11-26T00:29:46.941Z,94429.65
2018-11-26T00:32:21.246Z,94432.05
2018-11-26T00:34:55.674Z,94422.83
2018-11-26T00:37:30.542Z,94430.23
2018-11-26T00:40:06.450Z,94420.87
2018-11-26T00:42:40.874Z,94420.56
2018-11-26T00:45:15.385Z,94417.98
2018-11-26T00:47:50.110Z,94420.73
2018-11-26T00:50:24.861Z,94422.02
2018-11-26T00:52:59.540Z,94425.89
2018-11-26T00:55:34.031Z,94425.04
2018-11-26T00:58:08.472Z,94426.23
2018-11-26T01:00:43.097Z,94426.14
2018-11-26T01:03:17.953Z,94425.52
2018-11-26T01:05:52.272Z,94427.12
2018-11-26T01:08:26.857Z,94423.73
2018-11-26T01:11:01.366Z,94428.40
2018-11-26T01:13:35.977Z,94428.57
2018-11-26T01:16:10.578Z,94428.72
2018-11-26T01:18:45.090Z,94433.09
2018-11-26T01:21:19.789Z,94432.75
2018-11-26T01:23:54.285Z,94432.98
2018-11-26T01:26:28.823Z,94425.66
2018-11-26T01:29:03.591Z,94419.71
2018-11-26T01:31:38.013Z,94416.51
2018-11-26T01:34:12.289Z,94413.97
2018-11-26T01:36:46.873Z,94413.52
2018-11-26T01:39:21.717Z,94415.58
2018-11-26T01:41:56.833Z,94411.71
2018-11-26T01:44:31.355Z,94413.77
2018-11-26T01:47:06.466Z,94407.37
2018-11-26T01:49:41.001Z,94400.84
2018-11-26T01:52:16.057Z,94403.09
2018-11-26T01:54:50.401Z,94402.30
2018-11-26T01:57:24.957Z,94404.28
2018-11-26T02:00:00.439Z,94400.88
2018-11-26T02:02:35.185Z,94396.22
2018-11-26T02:05:09.659Z,94388.56
2018-11-26T02:07:44.813Z,94392.25
2018-11-26T02:10:20.452Z,94391.91
2018-11-26T02:12:54.790Z,94391.73
2018-11-26T02:15:39.329Z,94393.02
2018-11-26T02:18:14.289Z,94402.05
2018-11-26T02:20:49.109Z,94392.25
2018-11-26T02:23:24.149Z,94395.52
2018-11-26T02:25:58.817Z,94391.06
2018-11-26T02:28:33.157Z,94388.92
2018-11-26T02:31:08.153Z,94383.73
2018-11-26T02:33:42.841Z,94383.25
2018-11-26T02:36:17.789Z,94386.83
2018-11-26T02:38:52.117Z,94387.80
2018-11-26T02:41:26.896Z,94398.44
2018-11-26T02:44:01.554Z,94392.32
2018-11-26T02:46:36.517Z,94389.69
2018-11-26T02:49:11.026Z,94392.70
2018-11-26T02:51:45.672Z,94390.06
2018-11-26T02:54:20.649Z,94388.81
2018-11-26T02:56:55.249Z,94380.44
2018-11-26T02:59:29.860Z,94383.28
2018-11-26T03:02:04.679Z,94377.03
2018-11-26T03:04:39.564Z,94378.63
2018-11-26T03:07:14.040Z,94383.28
2018-11-26T03:09:48.546Z,94384.53
2018-11-26T03:12:23.286Z,94378.14
2018-11-26T03:14:57.830Z,94386.97
2018-11-26T03:17:32.654Z,94378.80
2018-11-26T03:20:08.428Z,94377.48
2018-11-26T03:22:43.388Z,94378.59
2018-11-26T03:25:18.453Z,94384.12
2018-11-26T03:27:53.094Z,94382.31
2018-11-26T03:30:27.831Z,94387.00
2018-11-26T03:33:02.786Z,94393.95
2018-11-26T03:35:37.440Z,94391.34
2018-11-26T03:38:14.386Z,94393.09
2018-11-26T03:40:48.673Z,94393.40
2018-11-26T03:43:22.960Z,94389.44
2018-11-26T03:45:57.662Z,94394.92
2018-11-26T03:48:32.465Z,94392.00
2018-11-26T03:51:07.247Z,94387.70
2018-11-26T03:53:41.825Z,94397.18
2018-11-26T03:56:16.766Z,94397.01
2018-11-26T03:58:51.433Z,94392.28
2018-11-26T04:01:26.201Z,94393.64
2018-11-26T04:04:01.001Z,94403.61
2018-11-26T04:06:36.125Z,94399.09
2018-11-26T04:09:10.674Z,94397.95
2018-11-26T04:11:45.275Z,94394.55
2018-11-26T04:14:19.968Z,94391.48
2018-11-26T04:16:54.509Z,94382.45
2018-11-26T04:19:29.059Z,94382.80
2018-11-26T04:22:04.516Z,94385.72
2018-11-26T04:24:39.262Z,94386.06
2018-11-26T04:27:13.749Z,94389.30
2018-11-26T04:29:48.158Z,94391.20
2018-11-26T04:32:22.513Z,94384.78
2018-11-26T04:34:57.109Z,94392.07
2018-11-26T04:37:31.565Z,94393.07
2018-11-26T04:40:09.262Z,94398.07
2018-11-26T04:42:43.684Z,94395.50
2018-11-26T04:45:18.337Z,94396.59
2018-11-26T04:47:53.142Z,94401.73
2018-11-26T04:50:27.646Z,94403.30
2018-11-26T04:53:02.834Z,94407.50
2018-11-26T04:55:37.967Z,94406.90
2018-11-26T04:58:12.534Z,94404.64
2018-11-26T05:00:46.932Z,94408.35
2018-11-26T05:03:21.634Z,94404.47
2018-11-26T05:05:56.272Z,94401.20
2018-11-26T05:08:30.776Z,94407.04
2018-11-26T05:11:05.746Z,94406.72
2018-11-26T05:13:40.122Z,94404.81
2018-11-26T05:16:14.638Z,94408.19
2018-11-26T05:18:49.078Z,94408.13
2018-11-26T05:21:24.461Z,94409.09
2018-11-26T05:23:58.906Z,94409.06
2018-11-26T05:26:33.213Z,94410.38
2018-11-26T05:29:07.867Z,94415.18
2018-11-26T05:31:42.580Z,94406.70
2018-11-26T05:34:17.050Z,94419.27
2018-11-26T05:36:51.378Z,94421.37
2018-11-26T05:39:25.937Z,94421.03
2018-11-26T05:42:00.462Z,94422.63
2018-11-26T05:44:35.073Z,94415.89
2018-11-26T05:47:09.634Z,94415.89
2018-11-26T05:49:44.114Z,94415.58
2018-11-26T05:52:18.428Z,94409.61
2018-11-26T05:54:53.450Z,94404.75
2018-11-26T05:57:28.030Z,94409.27
2018-11-26T06:00:03.129Z,94416.35
2018-11-26T06:02:38.124Z,94413.33
2018-11-26T06:05:13.027Z,94415.06
2018-11-26T06:07:47.539Z,94414.92
2018-11-26T06:10:22.245Z,94418.30
2018-11-26T06:12:57.270Z,94417.00
2018-11-26T06:15:31.754Z,94418.64
2018-11-26T06:18:06.090Z,94418.78
2018-11-26T06:20:40.607Z,94420.89
2018-11-26T06:23:15.400Z,94412.55
2018-11-26T06:25:50.247Z,94415.27
2018-11-26T06:28:24.866Z,94413.32
2018-11-26T06:30:59.694Z,94418.95
2018-11-26T06:33:34.312Z,94420.41
2018-11-26T06:36:08.970Z,94421.69
2018-11-26T06:38:43.435Z,94426.35
2018-11-26T06:41:17.709Z,94428.12
2018-11-26T06:43:52.334Z,94424.97
2018-11-26T06:46:26.766Z,94429.11
2018-11-26T06:49:01.783Z,94431.08
2018-11-26T06:51:36.071Z,94436.05
2018-11-26T06:54:10.605Z,94433.48
2018-11-26T06:56:45.149Z,94438.08
2018-11-26T06:59:19.549Z,94436.68
2018-11-26T07:01:53.991Z,94430.09
2018-11-26T07:04:28.720Z,94434.55
2018-11-26T07:07:03.601Z,94435.97
2018-11-26T07:09:38.369Z,94440.14
2018-11-26T07:12:13.289Z,94437.13
2018-11-26T07:14:47.682Z,94442.23
2018-11-26T07:17:22.486Z,94438.72
2018-11-26T07:19:56.984Z,94446.72
2018-11-26T07:22:31.305Z,94447.20
2018-11-26T07:25:09.499Z,94452.01
2018-11-26T07:27:44.903Z,94456.16
2018-11-26T07:30:22.120Z,94462.13
2018-11-26T07:32:57.099Z,94465.02
2018-11-26T07:35:32.542Z,94462.13
2018-11-26T07:38:07.515Z,94459.55
2018-11-26T07:40:42.507Z,94457.78
2018-11-26T07:43:16.954Z,94458.59
2018-11-26T07:45:51.401Z,94461.47
2018-11-26T07:48:26.102Z,94460.02
2018-11-26T07:51:00.953Z,94462.41
2018-11-26T07:53:35.689Z,94461.92
2018-11-26T07:56:10.560Z,94464.93
2018-11-26T07:58:44.924Z,94465.25
2018-11-26T08:01:19.403Z,94466.84
2018-11-26T08:03:53.969Z,94467.84
2018-11-26T08:06:28.345Z,94465.13
2018-11-26T08:09:03.573Z,94465.56
2018-11-26T08:11:38.081Z,94473.94
2018-11-26T08:14:13.230Z,94477.45
2018-11-26T08:16:47.529Z,94479.08
2018-11-26T08:19:22.550Z,94481.08
2018-11-26T08:21:57.478Z,94485.83
2018-11-26T08:24:32.477Z,94493.13
2018-11-26T08:27:06.887Z,94496.26
2018-11-26T08:29:42.469Z,94493.54
2018-11-26T08:32:16.746Z,94501.09
2018-11-26T08:34:51.218Z,94499.63
2018-11-26T08:37:31.229Z,94501.48
2018-11-26T08:40:12.422Z,94503.69
2018-11-26T08:42:51.531Z,94501.40
2018-11-26T08:45:34.543Z,94498.52
2018-11-26T08:48:14.271Z,94504.14
2018-11-26T08:50:49.030Z,94505.74
2018-11-26T08:53:23.986Z,94503.03
2018-11-26T08:55:58.505Z,94507.20
2018-11-26T08:58:33.653Z,94503.00
2018-11-26T09:01:12.546Z,94503.17
2018-11-26T09:04:02.349Z,94512.52
2018-11-26T09:06:37.142Z,94514.36
2018-11-26T09:09:11.614Z,94513.01
2018-11-26T09:11:46.465Z,94513.41
2018-11-26T09:14:21.145Z,94520.56
2018-11-26T09:16:55.636Z,94516.84
2018-11-26T09:19:30.660Z,94522.06
2018-11-26T09:22:05.449Z,94519.52
2018-11-26T09:24:40.321Z,94522.66
2018-11-26T09:27:14.721Z,94521.34
2018-11-26T09:29:49.114Z,94522.80
2018-11-26T09:32:23.561Z,94517.70
2018-11-26T09:34:58.021Z,94515.00
2018-11-26T09:37:32.438Z,94518.09
2018-11-26T09:40:09.891Z,94515.73
2018-11-26T09:42:44.537Z,94518.36
2018-11-26T09:45:19.514Z,94512.81
2018-11-26T09:47:54.025Z,94515.20
2018-11-26T09:50:28.851Z,94520.01
2018-11-26T09:53:04.043Z,94516.95
2018-11-26T09:55:38.347Z,94518.29
2018-11-26T09:58:12.709Z,94521.25
2018-11-26T10:00:47.177Z,94520.91
2018-11-26T10:03:21.754Z,94519.00
2018-11-26T10:05:56.443Z,94526.45
2018-11-26T10:08:31.277Z,94526.30
2018-11-26T10:11:05.884Z,94522.13
2018-11-26T10:13:40.657Z,94527.99
2018-11-26T10:16:14.898Z,94522.09
2018-11-26T10:18:49.395Z,94523.88
2018-11-26T10:21:23.773Z,94523.92
2018-11-26T10:23:58.606Z,94529.06
2018-11-26T10:26:32.981Z,94530.83
2018-11-26T10:29:07.979Z,94522.53
2018-11-26T10:31:42.378Z,94522.76
2018-11-26T10:34:17.190Z,94523.66
2018-11-26T10:36:52.618Z,94518.77
2018-11-26T10:39:27.124Z,94522.68
2018-11-26T10:42:01.807Z,94526.66
2018-11-26T10:44:36.252Z,94524.02
2018-11-26T10:47:10.796Z,94527.98
2018-11-26T10:49:45.266Z,94528.57
2018-11-26T10:52:19.773Z,94524.67
2018-11-26T10:54:54.428Z,94525.78
2018-11-26T10:57:28.950Z,94523.34
2018-11-26T11:00:04.230Z,94524.95
2018-11-26T11:02:42.192Z,94523.38
2018-11-26T11:05:16.693Z,94522.17
2018-11-26T11:07:51.532Z,94523.70
2018-11-26T11:10:29.224Z,94514.16
2018-11-26T11:13:03.951Z,94522.81
2018-11-26T11:15:39.160Z,94527.62
2018-11-26T11:18:14.312Z,94523.42
2018-11-26T11:20:49.146Z,94523.00
2018-11-26T11:23:23.991Z,94523.16
2018-11-26T11:25:58.705Z,94519.44
2018-11-26T11:28:33.208Z,94522.33
2018-11-26T11:31:07.702Z,94523.07
2018-11-26T11:33:42.135Z,94526.66
2018-11-26T11:36:16.391Z,94526.55
2018-11-26T11:38:50.831Z,94529.82
2018-11-26T11:41:25.390Z,94525.92
2018-11-26T11:44:00.094Z,94530.41
2018-11-26T11:46:34.963Z,94525.80
2018-11-26T11:49:09.446Z,94523.93
2018-11-26T11:51:44.118Z,94520.77
2018-11-26T11:54:18.388Z,94525.30
2018-11-26T11:56:52.783Z,94524.45
2018-11-26T11:59:27.311Z,94521.71
2018-11-26T12:02:02.198Z,94524.28
2018-11-26T12:04:36.695Z,94526.99
2018-11-26T12:07:11.446Z,94526.37
2018-11-26T12:09:45.845Z,94530.09
2018-11-26T12:12:20.462Z,94524.20
2018-11-26T12:14:55.203Z,94526.59
2018-11-26T12:17:29.738Z,94529.17
2018-11-26T12:20:04.602Z,94524.73
2018-11-26T12:22:39.863Z,94525.74
2018-11-26T12:25:18.378Z,94520.59
2018-11-26T12:27:52.726Z,94532.22
2018-11-26T12:30:29.528Z,94535.45
2018-11-26T12:33:04.022Z,94535.19
2018-11-26T12:35:38.269Z,94532.53
2018-11-26T12:38:12.750Z,94533.79
2018-11-26T12:40:47.086Z,94534.91
2018-11-26T12:43:21.752Z,94537.97
2018-11-26T12:45:56.488Z,94535.25
2018-11-26T12:48:30.977Z,94542.11
2018-11-26T12:51:05.695Z,94537.97
2018-11-26T12:53:40.204Z,94539.22
2018-11-26T12:56:14.926Z,94543.08
2018-11-26T12:58:49.278Z,94543.39
2018-11-26T13:01:24.108Z,94543.77
2018-11-26T13:03:58.371Z,94538.34
2018-11-26T13:06:33.518Z,94541.09
2018-11-26T13:09:08.649Z,94543.34
2018-11-26T13:11:43.251Z,94549.98
2018-11-26T13:14:17.715Z,94551.01
2018-11-26T13:16:52.367Z,94554.58
2018-11-26T13:19:26.808Z,94554.94
2018-11-26T13:22:01.547Z,94551.89
2018-11-26T13:24:36.327Z,94552.74
2018-11-26T13:27:11.097Z,94555.02
2018-11-26T13:29:45.695Z,94555.98
2018-11-26T13:32:19.985Z,94562.59
2018-11-26T13:34:54.499Z,94558.41
2018-11-26T13:37:29.164Z,94560.84
2018-11-26T13:40:04.709Z,94567.27
2018-11-26T13:42:39.630Z,94566.75
2018-11-26T13:45:17.905Z,94564.84
2018-11-26T13:47:52.766Z,94569.84
2018-11-26T13:50:31.594Z,94570.98
2018-11-26T13:53:06.653Z,94572.11
2018-11-26T13:55:41.634Z,94573.71
2018-11-26T13:58:16.774Z,94574.22
2018-11-26T14:00:51.762Z,94581.13
2018-11-26T14:03:26.443Z,94589.63
2018-11-26T14:06:00.986Z,94588.18
2018-11-26T14:08:35.419Z,94593.64
2018-11-26T14:11:10.006Z,94587.20
2018-11-26T14:13:44.414Z,94592.36
2018-11-26T14:16:19.135Z,94590.75
2018-11-26T14:18:53.770Z,94589.15
2018-11-26T14:21:28.284Z,94594.30
2018-11-26T14:24:03.171Z,94592.84
2018-11-26T14:26:37.506Z,94593.97
2018-11-26T14:29:12.063Z,94597.20
2018-11-26T14:31:46.595Z,94597.17
2018-11-26T14:34:21.118Z,94600.38
2018-11-26T14:36:55.943Z,94608.58
2018-11-26T14:39:30.309Z,94609.70
2018-11-26T14:42:05.526Z,94610.02
2018-11-26T14:44:40.097Z,94612.89
2018-11-26T14:47:14.539Z,94622.68
2018-11-26T14:49:49.303Z,94618.95
2018-11-26T14:52:24.611Z,94628.27
2018-11-26T14:54:59.015Z,94627.46
2018-11-26T14:57:35.268Z,94636.45
2018-11-26T15:00:25.227Z,94637.41
2018-11-26T15:03:06.559Z,94638.65
2018-11-26T15:05:41.170Z,94633.71
2018-11-26T15:08:26.083Z,94633.52
2018-11-26T15:11:02.107Z,94637.84
2018-11-26T15:13:36.710Z,94638.64
2018-11-26T15:16:11.930Z,94646.98
2018-11-26T15:18:46.734Z,94643.77
2018-11-26T15:21:21.231Z,94645.70
2018-11-26T15:23:56.047Z,94648.27
2018-11-26T15:26:30.877Z,94647.79
2018-11-26T15:29:06.311Z,94654.69
2018-11-26T15:31:40.961Z,94656.13
2018-11-26T15:34:15.623Z,94657.09
2018-11-26T15:36:50.628Z,94653.23
2018-11-26T15:39:25.024Z,94659.17
2018-11-26T15:41:59.627Z,94657.56
2018-11-26T15:44:34.103Z,94656.28
2018-11-26T15:47:09.259Z,94652.71
2018-11-26T15:49:44.027Z,94657.41
2018-11-26T15:52:18.490Z,94658.04
2018-11-26T15:54:52.974Z,94650.46
2018-11-26T15:57:27.734Z,94664.73
2018-11-26T16:00:02.903Z,94671.31
2018-11-26T16:02:37.834Z,94666.50
2018-11-26T16:05:15.071Z,94670.98
2018-11-26T16:07:50.390Z,94676.77
2018-11-26T16:10:26.320Z,94679.16
2018-11-26T16:13:02.059Z,94672.75
2018-11-26T16:15:38.877Z,94678.38
2018-11-26T16:18:16.219Z,94685.89
2018-11-26T16:20:51.452Z,94687.81
2018-11-26T16:23:26.051Z,94691.17
2018-11-26T16:26:00.876Z,94696.30
2018-11-26T16:28:35.429Z,94695.98
2018-11-26T16:31:09.992Z,94697.70
2018-11-26T16:33:44.915Z,94698.98
2018-11-26T16:36:19.568Z,94700.14
2018-11-26T16:38:53.838Z,94703.85
2018-11-26T16:41:28.747Z,94701.43
2018-11-26T16:44:03.975Z,94706.41
2018-11-26T16:46:38.567Z,94704.13
2018-11-26T16:49:12.990Z,94714.37
2018-11-26T16:51:47.676Z,94713.24
2018-11-26T16:54:22.397Z,94720.30
2018-11-26T16:56:56.786Z,94725.44
2018-11-26T16:59:32.134Z,94724.05
2018-11-26T17:02:06.447Z,94724.04
2018-11-26T17:04:41.481Z,94730.45
2018-11-26T17:09:52.227Z,94730.73
2018-11-26T17:12:26.799Z,94734.58
2018-11-26T17:15:01.442Z,94739.70
2018-11-26T17:17:35.887Z,94740.34
2018-11-26T17:20:12.171Z,94747.70
2018-11-26T17:22:47.008Z,94746.60
2018-11-26T17:25:21.798Z,94749.21
2018-11-26T17:27:56.931Z,94754.12
2018-11-26T17:30:31.714Z,94753.16
2018-11-26T17:33:07.928Z,94758.13
2018-11-26T17:35:42.689Z,94759.07
2018-11-26T17:38:17.435Z,94757.77
2018-11-26T17:40:52.362Z,94764.30
2018-11-26T17:43:26.861Z,94764.20
2018-11-26T17:46:01.854Z,94767.09
2018-11-26T17:48:36.179Z,94767.88
2018-11-26T17:51:10.837Z,94763.83
2018-11-26T17:53:45.272Z,94767.66
2018-11-26T17:56:20.343Z,94774.39
2018-11-26T17:58:54.754Z,94768.61
2018-11-26T18:01:34.031Z,94773.89
2018-11-26T18:04:09.815Z,94777.43
2018-11-26T18:06:47.493Z,94780.55
2018-11-26T18:09:22.834Z,94792.23
2018-11-26T18:11:54.138Z,94790.41
2018-11-26T18:14:28.759Z,94792.77
2018-11-26T18:17:03.544Z,94785.56
2018-11-26T18:19:37.998Z,94801.63
2018-11-26T18:22:12.679Z,94795.36
2018-11-26T18:24:47.452Z,94797.77
2018-11-26T18:30:00.242Z,94796.66
2018-11-26T18:32:34.963Z,94796.03
2018-11-26T18:35:09.773Z,94799.23
2018-11-26T18:37:44.387Z,94800.97
2018-11-26T18:40:19.379Z,94804.16
2018-11-26T18:42:54.060Z,94805.64
2018-11-26T18:45:28.880Z,94807.23
2018-11-26T18:48:03.697Z,94811.85
2018-11-26T18:50:39.088Z,94816.66
2018-11-26T18:53:13.438Z,94813.77
2018-11-26T18:55:48.275Z,94820.17
2018-11-26T18:58:23.610Z,94818.23
2018-11-26T19:01:00.179Z,94822.53
2018-11-26T19:03:34.692Z,94824.34
2018-11-26T19:06:11.523Z,94828.52
2018-11-26T19:08:47.139Z,94834.13
2018-11-26T19:11:22.086Z,94841.91
2018-11-26T19:14:03.536Z,94841.97
2018-11-26T19:16:41.620Z,94840.36
2018-11-26T19:19:15.944Z,94849.66
2018-11-26T19:21:50.592Z,94852.02
2018-11-26T19:24:25.447Z,94858.58
2018-11-26T19:26:59.855Z,94859.39
2018-11-26T19:29:34.730Z,94852.62
2018-11-26T19:32:09.023Z,94857.03
2018-11-26T19:34:45.955Z,94855.87
2018-11-26T19:37:21.136Z,94865.20
2018-11-26T19:39:55.655Z,94857.69
2018-11-26T19:42:30.417Z,94867.41
2018-11-26T19:45:07.966Z,94864.48
2018-11-26T19:47:42.554Z,94871.79
2018-11-26T19:50:18.373Z,94872.09
2018-11-26T19:52:53.778Z,94876.05
2018-11-26T19:55:28.244Z,94878.20
2018-11-26T19:58:03.015Z,94874.38
2018-11-26T20:00:37.943Z,94877.90
2018-11-26T20:03:14.875Z,94888.81
2018-11-26T20:06:06.599Z,94893.16
2018-11-26T20:08:42.195Z,94896.80
2018-11-26T20:11:17.010Z,94903.06
2018-11-26T20:13:51.792Z,94900.80
2018-11-26T20:16:35.126Z,94898.39
2018-11-26T20:19:10.274Z,94903.69
2018-11-26T20:21:44.743Z,94905.33
2018-11-26T20:24:19.275Z,94909.45
2018-11-26T20:26:53.722Z,94907.72
2018-11-26T20:29:28.203Z,94909.15
2018-11-26T20:32:04.478Z,94906.11
2018-11-26T20:34:39.349Z,94913.17
2018-11-26T20:37:16.205Z,94919.41
2018-11-26T20:39:50.732Z,94915.27
2018-11-26T20:42:25.229Z,94915.89
2018-11-26T20:44:59.807Z,94916.34
2018-11-26T20:47:34.915Z,94918.39
2018-11-26T20:50:15.287Z,94923.31
2018-11-26T20:52:50.537Z,94916.42
2018-11-26T20:55:26.091Z,94927.13
2018-11-26T20:58:00.911Z,94920.54
2018-11-26T21:00:35.483Z,94925.87
2018-11-26T21:03:11.270Z,94922.56
2018-11-26T21:05:47.062Z,94933.57
2018-11-26T21:08:21.479Z,94939.48
2018-11-26T21:10:55.911Z,94940.73
2018-11-26T21:13:30.238Z,94938.06
2018-11-26T21:16:05.170Z,94936.27
2018-11-26T21:18:39.515Z,94943.05
2018-11-26T21:21:14.439Z,94941.77
2018-11-26T21:23:48.806Z,94942.72
2018-11-26T21:26:23.091Z,94945.49
2018-11-26T21:28:57.983Z,94952.17
2018-11-26T21:31:32.751Z,94948.23
2018-11-26T21:34:07.239Z,94946.30
2018-11-26T21:36:42.187Z,94952.94
2018-11-26T21:39:16.631Z,94952.02
2018-11-26T21:41:51.125Z,94952.17
2018-11-26T21:44:25.591Z,94955.69
2018-11-26T21:46:59.887Z,94957.15
2018-11-26T21:49:34.437Z,94957.52
2018-11-26T21:52:09.211Z,94958.64
2018-11-26T21:54:43.853Z,94967.77
2018-11-26T21:57:18.265Z,94972.80
2018-11-26T21:59:52.608Z,94970.19
2018-11-26T22:02:27.076Z,94974.73
2018-11-26T22:05:01.482Z,94969.61
2018-11-26T22:07:36.037Z,94965.91
2018-11-26T22:10:12.658Z,94979.34
2018-11-26T22:12:48.220Z,94979.78
2018-11-26T22:15:23.042Z,94979.16
2018-11-26T22:17:57.437Z,94987.47
2018-11-26T22:20:32.431Z,94993.01
2018-11-26T22:23:07.880Z,94996.67
2018-11-26T22:25:42.273Z,94996.45
2018-11-26T22:28:17.414Z,95003.11
2018-11-26T22:30:55.451Z,95000.25
2018-11-26T22:33:30.140Z,95001.14
2018-11-26T22:36:04.970Z,95009.30
2018-11-26T22:38:39.390Z,95013.48
2018-11-26T22:41:14.006Z,95016.05
2018-11-26T22:43:48.846Z,95019.75
2018-11-26T22:46:23.139Z,95022.94
2018-11-26T22:48:58.057Z,95023.27
2018-11-26T22:51:32.711Z,95023.59
2018-11-26T22:54:07.137Z,95026.63
2018-11-26T22:56:42.032Z,95033.59
2018-11-26T22:59:16.407Z,95032.79
2018-11-26T23:01:53.888Z,95027.30
2018-11-26T23:04:28.734Z,95034.80
2018-11-26T23:07:03.766Z,95034.18
2018-11-26T23:09:38.419Z,95036.12
2018-11-26T23:12:13.586Z,95036.78
2018-11-26T23:14:48.008Z,95037.73
2018-11-26T23:17:23.019Z,95040.96
2018-11-26T23:19:57.530Z,95043.59
2018-11-26T23:22:31.931Z,95043.34
2018-11-26T23:25:08.030Z,95044.44
2018-11-26T23:27:42.807Z,95045.20
2018-11-26T23:30:23.741Z,95045.10
2018-11-26T23:33:01.115Z,95047.84
2018-11-26T23:35:35.821Z,95054.37
2018-11-26T23:38:10.607Z,95057.48
2018-11-26T23:40:45.651Z,95056.83
2018-11-26T23:43:20.055Z,95056.16
2018-11-26T23:45:54.510Z,95057.88
2018-11-26T23:48:29.046Z,95050.52
2018-11-26T23:51:03.924Z,95057.92
2018-11-26T23:53:38.679Z,95056.41
2018-11-26T23:56:14.639Z,95060.30
2018-11-26T23:58:49.051Z,95066.61
